sensor_id;sensor_type;location;lat;lon;timestamp;P1;durP1;ratioP1;P2;durP2;ratioP2
75935;SDS011;64614;32.062;34.834;2024-03-17T00:00:30;5.43;;;2.00;;
75935;SDS011;64614;32.062;34.834;2024-03-17T00:02:56;4.45;;;2.03;;
75935;SDS011;64614;32.062;34.834;2024-03-17T00:05:22;5.50;;;2.33;;
75935;SDS011;64614;32.062;34.834;2024-03-17T00:07:48;4.45;;;2.08;;
75935;SDS011;64614;32.062;34.834;2024-03-17T00:10:13;4.43;;;2.20;;
75935;SDS011;64614;32.062;34.834;2024-03-17T00:12:40;4.30;;;1.83;;
75935;SDS011;64614;32.062;34.834;2024-03-17T00:15:06;3.58;;;1.65;;
75935;SDS011;64614;32.062;34.834;2024-03-17T00:17:32;5.38;;;1.90;;
75935;SDS011;64614;32.062;34.834;2024-03-17T00:20:02;5.88;;;2.10;;
75935;SDS011;64614;32.062;34.834;2024-03-17T00:22:33;3.95;;;1.88;;
75935;SDS011;64614;32.062;34.834;2024-03-17T00:25:02;4.68;;;2.00;;
75935;SDS011;64614;32.062;34.834;2024-03-17T00:27:28;4.07;;;1.70;;
75935;SDS011;64614;32.062;34.834;2024-03-17T00:29:54;3.83;;;1.80;;
75935;SDS011;64614;32.062;34.834;2024-03-17T00:32:19;5.43;;;1.80;;
75935;SDS011;64614;32.062;34.834;2024-03-17T00:34:45;4.22;;;1.77;;
75935;SDS011;64614;32.062;34.834;2024-03-17T00:37:11;5.03;;;1.90;;
75935;SDS011;64614;32.062;34.834;2024-03-17T00:39:36;4.47;;;2.20;;
75935;SDS011;64614;32.062;34.834;2024-03-17T00:42:02;4.88;;;1.83;;
75935;SDS011;64614;32.062;34.834;2024-03-17T00:44:28;3.55;;;2.00;;
75935;SDS011;64614;32.062;34.834;2024-03-17T00:46:53;5.47;;;2.15;;
75935;SDS011;64614;32.062;34.834;2024-03-17T00:49:19;4.18;;;1.80;;
75935;SDS011;64614;32.062;34.834;2024-03-17T00:51:45;3.88;;;1.90;;
75935;SDS011;64614;32.062;34.834;2024-03-17T00:54:13;4.40;;;1.90;;
75935;SDS011;64614;32.062;34.834;2024-03-17T00:56:38;3.85;;;1.90;;
75935;SDS011;64614;32.062;34.834;2024-03-17T00:59:04;4.10;;;1.80;;
75935;SDS011;64614;32.062;34.834;2024-03-17T01:01:30;3.13;;;1.90;;
75935;SDS011;64614;32.062;34.834;2024-03-17T01:03:55;3.58;;;1.80;;
75935;SDS011;64614;32.062;34.834;2024-03-17T01:06:21;4.15;;;1.90;;
75935;SDS011;64614;32.062;34.834;2024-03-17T01:08:47;3.85;;;2.08;;
75935;SDS011;64614;32.062;34.834;2024-03-17T01:11:14;5.35;;;1.92;;
75935;SDS011;64614;32.062;34.834;2024-03-17T01:13:42;6.10;;;1.73;;
75935;SDS011;64614;32.062;34.834;2024-03-17T01:16:08;3.25;;;1.73;;
75935;SDS011;64614;32.062;34.834;2024-03-17T01:18:33;4.45;;;2.10;;
75935;SDS011;64614;32.062;34.834;2024-03-17T01:21:02;3.42;;;1.88;;
75935;SDS011;64614;32.062;34.834;2024-03-17T01:23:28;4.57;;;1.83;;
75935;SDS011;64614;32.062;34.834;2024-03-17T01:25:54;3.90;;;1.65;;
75935;SDS011;64614;32.062;34.834;2024-03-17T01:28:20;5.65;;;2.20;;
75935;SDS011;64614;32.062;34.834;2024-03-17T01:30:45;5.10;;;2.00;;
75935;SDS011;64614;32.062;34.834;2024-03-17T01:33:13;4.07;;;2.00;;
75935;SDS011;64614;32.062;34.834;2024-03-17T01:35:38;4.28;;;1.95;;
75935;SDS011;64614;32.062;34.834;2024-03-17T01:38:04;4.28;;;2.08;;
75935;SDS011;64614;32.062;34.834;2024-03-17T01:40:30;4.13;;;1.83;;
75935;SDS011;64614;32.062;34.834;2024-03-17T01:42:55;3.92;;;2.10;;
75935;SDS011;64614;32.062;34.834;2024-03-17T01:45:25;4.32;;;1.80;;
75935;SDS011;64614;32.062;34.834;2024-03-17T01:47:55;4.07;;;1.75;;
75935;SDS011;64614;32.062;34.834;2024-03-17T01:50:25;3.85;;;1.90;;
75935;SDS011;64614;32.062;34.834;2024-03-17T01:52:56;4.40;;;1.80;;
75935;SDS011;64614;32.062;34.834;2024-03-17T01:55:28;3.97;;;1.90;;
75935;SDS011;64614;32.062;34.834;2024-03-17T02:00:20;4.60;;;2.10;;
75935;SDS011;64614;32.062;34.834;2024-03-17T02:02:46;3.60;;;1.80;;
75935;SDS011;64614;32.062;34.834;2024-03-17T02:05:12;4.65;;;2.17;;
75935;SDS011;64614;32.062;34.834;2024-03-17T02:07:38;4.00;;;2.20;;
75935;SDS011;64614;32.062;34.834;2024-03-17T02:10:04;3.90;;;2.13;;
75935;SDS011;64614;32.062;34.834;2024-03-17T02:12:30;4.18;;;2.10;;
75935;SDS011;64614;32.062;34.834;2024-03-17T02:14:57;3.15;;;1.80;;
75935;SDS011;64614;32.062;34.834;2024-03-17T02:17:23;3.65;;;1.92;;
75935;SDS011;64614;32.062;34.834;2024-03-17T02:19:50;3.90;;;1.92;;
75935;SDS011;64614;32.062;34.834;2024-03-17T02:22:17;3.38;;;1.63;;
75935;SDS011;64614;32.062;34.834;2024-03-17T02:24:43;4.53;;;1.92;;
75935;SDS011;64614;32.062;34.834;2024-03-17T02:27:09;2.70;;;1.73;;
75935;SDS011;64614;32.062;34.834;2024-03-17T02:29:36;4.25;;;2.20;;
75935;SDS011;64614;32.062;34.834;2024-03-17T02:32:05;3.40;;;1.85;;
75935;SDS011;64614;32.062;34.834;2024-03-17T02:34:34;4.43;;;2.08;;
75935;SDS011;64614;32.062;34.834;2024-03-17T02:37:01;3.47;;;1.90;;
75935;SDS011;64614;32.062;34.834;2024-03-17T02:39:28;4.70;;;2.00;;
75935;SDS011;64614;32.062;34.834;2024-03-17T02:42:03;3.75;;;1.90;;
75935;SDS011;64614;32.062;34.834;2024-03-17T02:44:33;4.45;;;1.92;;
75935;SDS011;64614;32.062;34.834;2024-03-17T02:46:59;3.80;;;1.90;;
75935;SDS011;64614;32.062;34.834;2024-03-17T02:49:26;4.03;;;1.92;;
75935;SDS011;64614;32.062;34.834;2024-03-17T02:51:55;5.82;;;1.70;;
75935;SDS011;64614;32.062;34.834;2024-03-17T02:54:21;3.33;;;1.80;;
75935;SDS011;64614;32.062;34.834;2024-03-17T02:56:50;3.67;;;1.83;;
75935;SDS011;64614;32.062;34.834;2024-03-17T02:59:16;4.72;;;1.75;;
75935;SDS011;64614;32.062;34.834;2024-03-17T03:01:42;4.30;;;2.00;;
75935;SDS011;64614;32.062;34.834;2024-03-17T03:04:08;3.83;;;1.95;;
75935;SDS011;64614;32.062;34.834;2024-03-17T03:06:33;4.68;;;1.90;;
75935;SDS011;64614;32.062;34.834;2024-03-17T03:08:59;4.40;;;1.92;;
75935;SDS011;64614;32.062;34.834;2024-03-17T03:11:25;4.53;;;1.90;;
75935;SDS011;64614;32.062;34.834;2024-03-17T03:13:51;4.35;;;1.98;;
75935;SDS011;64614;32.062;34.834;2024-03-17T03:16:16;4.32;;;1.98;;
75935;SDS011;64614;32.062;34.834;2024-03-17T03:18:43;3.45;;;1.67;;
75935;SDS011;64614;32.062;34.834;2024-03-17T03:21:10;4.15;;;2.10;;
75935;SDS011;64614;32.062;34.834;2024-03-17T03:23:37;4.72;;;2.03;;
75935;SDS011;64614;32.062;34.834;2024-03-17T03:26:03;3.85;;;1.77;;
75935;SDS011;64614;32.062;34.834;2024-03-17T03:28:32;3.75;;;1.70;;
75935;SDS011;64614;32.062;34.834;2024-03-17T03:30:58;4.15;;;1.80;;
75935;SDS011;64614;32.062;34.834;2024-03-17T03:33:24;4.78;;;2.03;;
75935;SDS011;64614;32.062;34.834;2024-03-17T03:35:50;4.80;;;1.90;;
75935;SDS011;64614;32.062;34.834;2024-03-17T03:38:16;4.22;;;1.90;;
75935;SDS011;64614;32.062;34.834;2024-03-17T03:40:44;5.05;;;1.80;;
75935;SDS011;64614;32.062;34.834;2024-03-17T03:43:09;4.10;;;1.80;;
75935;SDS011;64614;32.062;34.834;2024-03-17T03:45:35;4.18;;;1.92;;
75935;SDS011;64614;32.062;34.834;2024-03-17T03:48:02;3.58;;;1.80;;
75935;SDS011;64614;32.062;34.834;2024-03-17T03:50:28;3.97;;;1.92;;
75935;SDS011;64614;32.062;34.834;2024-03-17T03:52:54;4.18;;;1.95;;
75935;SDS011;64614;32.062;34.834;2024-03-17T03:55:20;4.00;;;2.00;;
75935;SDS011;64614;32.062;34.834;2024-03-17T03:57:46;4.57;;;2.10;;
75935;SDS011;64614;32.062;34.834;2024-03-17T04:00:16;3.22;;;1.77;;
75935;SDS011;64614;32.062;34.834;2024-03-17T04:02:46;4.53;;;1.75;;
75935;SDS011;64614;32.062;34.834;2024-03-17T04:05:15;5.55;;;2.03;;
75935;SDS011;64614;32.062;34.834;2024-03-17T04:07:41;4.80;;;1.90;;
75935;SDS011;64614;32.062;34.834;2024-03-17T04:10:08;4.45;;;2.00;;
75935;SDS011;64614;32.062;34.834;2024-03-17T04:12:34;4.50;;;1.70;;
75935;SDS011;64614;32.062;34.834;2024-03-17T04:15:00;5.60;;;2.10;;
75935;SDS011;64614;32.062;34.834;2024-03-17T04:17:27;4.90;;;2.13;;
75935;SDS011;64614;32.062;34.834;2024-03-17T04:19:53;4.10;;;2.10;;
75935;SDS011;64614;32.062;34.834;2024-03-17T04:22:19;5.70;;;2.30;;
75935;SDS011;64614;32.062;34.834;2024-03-17T04:24:47;4.03;;;2.10;;
75935;SDS011;64614;32.062;34.834;2024-03-17T04:27:18;4.30;;;2.17;;
75935;SDS011;64614;32.062;34.834;2024-03-17T04:30:03;3.70;;;1.95;;
75935;SDS011;64614;32.062;34.834;2024-03-17T04:32:30;4.82;;;1.88;;
75935;SDS011;64614;32.062;34.834;2024-03-17T04:34:57;4.00;;;1.90;;
75935;SDS011;64614;32.062;34.834;2024-03-17T04:37:22;3.53;;;1.90;;
75935;SDS011;64614;32.062;34.834;2024-03-17T04:39:49;4.93;;;2.08;;
75935;SDS011;64614;32.062;34.834;2024-03-17T04:42:16;3.72;;;2.10;;
75935;SDS011;64614;32.062;34.834;2024-03-17T04:44:45;3.95;;;2.00;;
75935;SDS011;64614;32.062;34.834;2024-03-17T04:47:11;7.32;;;2.20;;
75935;SDS011;64614;32.062;34.834;2024-03-17T04:49:38;4.60;;;1.98;;
75935;SDS011;64614;32.062;34.834;2024-03-17T04:52:06;4.78;;;1.98;;
75935;SDS011;64614;32.062;34.834;2024-03-17T04:54:32;4.57;;;2.20;;
75935;SDS011;64614;32.062;34.834;2024-03-17T04:56:58;4.55;;;2.10;;
75935;SDS011;64614;32.062;34.834;2024-03-17T04:59:24;5.82;;;2.53;;
75935;SDS011;64614;32.062;34.834;2024-03-17T05:01:50;5.43;;;2.45;;
75935;SDS011;64614;32.062;34.834;2024-03-17T05:04:17;8.10;;;2.80;;
75935;SDS011;64614;32.062;34.834;2024-03-17T05:06:42;6.78;;;2.88;;
75935;SDS011;64614;32.062;34.834;2024-03-17T05:09:14;6.45;;;2.72;;
75935;SDS011;64614;32.062;34.834;2024-03-17T05:14:07;6.55;;;3.00;;
75935;SDS011;64614;32.062;34.834;2024-03-17T05:16:33;8.05;;;3.15;;
75935;SDS011;64614;32.062;34.834;2024-03-17T05:18:59;7.95;;;3.20;;
75935;SDS011;64614;32.062;34.834;2024-03-17T05:21:24;7.13;;;2.70;;
75935;SDS011;64614;32.062;34.834;2024-03-17T05:23:51;7.72;;;2.90;;
75935;SDS011;64614;32.062;34.834;2024-03-17T05:26:17;9.90;;;3.40;;
75935;SDS011;64614;32.062;34.834;2024-03-17T05:28:43;8.68;;;3.25;;
75935;SDS011;64614;32.062;34.834;2024-03-17T05:31:10;6.55;;;2.58;;
75935;SDS011;64614;32.062;34.834;2024-03-17T05:33:40;7.63;;;3.20;;
75935;SDS011;64614;32.062;34.834;2024-03-17T05:36:09;6.03;;;2.80;;
75935;SDS011;64614;32.062;34.834;2024-03-17T05:38:34;9.10;;;3.00;;
75935;SDS011;64614;32.062;34.834;2024-03-17T05:41:01;6.70;;;2.85;;
75935;SDS011;64614;32.062;34.834;2024-03-17T05:43:28;8.15;;;3.05;;
75935;SDS011;64614;32.062;34.834;2024-03-17T05:45:59;8.88;;;3.05;;
75935;SDS011;64614;32.062;34.834;2024-03-17T05:48:26;8.48;;;3.20;;
75935;SDS011;64614;32.062;34.834;2024-03-17T05:50:52;8.60;;;2.70;;
75935;SDS011;64614;32.062;34.834;2024-03-17T05:53:19;7.28;;;3.03;;
75935;SDS011;64614;32.062;34.834;2024-03-17T05:55:45;7.15;;;3.13;;
75935;SDS011;64614;32.062;34.834;2024-03-17T05:58:11;7.50;;;2.88;;
75935;SDS011;64614;32.062;34.834;2024-03-17T06:00:37;6.45;;;2.80;;
75935;SDS011;64614;32.062;34.834;2024-03-17T06:03:07;9.30;;;2.70;;
75935;SDS011;64614;32.062;34.834;2024-03-17T06:05:37;14.40;;;3.72;;
75935;SDS011;64614;32.062;34.834;2024-03-17T06:08:07;8.25;;;3.20;;
75935;SDS011;64614;32.062;34.834;2024-03-17T06:10:34;7.53;;;2.92;;
75935;SDS011;64614;32.062;34.834;2024-03-17T06:13:01;9.70;;;2.80;;
75935;SDS011;64614;32.062;34.834;2024-03-17T06:18:15;8.15;;;3.20;;
75935;SDS011;64614;32.062;34.834;2024-03-17T06:20:45;8.50;;;3.15;;
75935;SDS011;64614;32.062;34.834;2024-03-17T06:23:12;8.07;;;3.10;;
75935;SDS011;64614;32.062;34.834;2024-03-17T06:28:10;5.68;;;2.58;;
75935;SDS011;64614;32.062;34.834;2024-03-17T06:30:42;6.30;;;2.40;;
75935;SDS011;64614;32.062;34.834;2024-03-17T06:33:15;5.93;;;2.60;;
75935;SDS011;64614;32.062;34.834;2024-03-17T06:35:44;7.13;;;2.50;;
75935;SDS011;64614;32.062;34.834;2024-03-17T06:38:11;7.15;;;2.45;;
75935;SDS011;64614;32.062;34.834;2024-03-17T06:40:37;6.40;;;2.35;;
75935;SDS011;64614;32.062;34.834;2024-03-17T06:43:03;6.22;;;2.50;;
75935;SDS011;64614;32.062;34.834;2024-03-17T06:45:29;5.82;;;2.15;;
75935;SDS011;64614;32.062;34.834;2024-03-17T06:47:55;6.22;;;2.10;;
75935;SDS011;64614;32.062;34.834;2024-03-17T06:50:21;5.68;;;2.45;;
75935;SDS011;64614;32.062;34.834;2024-03-17T06:52:47;6.40;;;2.00;;
75935;SDS011;64614;32.062;34.834;2024-03-17T06:55:13;6.30;;;2.20;;
75935;SDS011;64614;32.062;34.834;2024-03-17T06:57:41;4.88;;;1.80;;
75935;SDS011;64614;32.062;34.834;2024-03-17T07:00:09;5.80;;;2.33;;
75935;SDS011;64614;32.062;34.834;2024-03-17T07:02:39;5.25;;;1.85;;
75935;SDS011;64614;32.062;34.834;2024-03-17T07:05:06;5.40;;;1.95;;
75935;SDS011;64614;32.062;34.834;2024-03-17T07:07:32;5.53;;;1.98;;
75935;SDS011;64614;32.062;34.834;2024-03-17T07:09:58;3.65;;;1.95;;
75935;SDS011;64614;32.062;34.834;2024-03-17T07:12:24;4.80;;;2.10;;
75935;SDS011;64614;32.062;34.834;2024-03-17T07:14:50;4.47;;;2.00;;
75935;SDS011;64614;32.062;34.834;2024-03-17T07:17:17;4.15;;;1.85;;
75935;SDS011;64614;32.062;34.834;2024-03-17T07:19:42;6.68;;;2.22;;
75935;SDS011;64614;32.062;34.834;2024-03-17T07:22:08;5.30;;;2.10;;
75935;SDS011;64614;32.062;34.834;2024-03-17T07:24:34;4.93;;;2.13;;
75935;SDS011;64614;32.062;34.834;2024-03-17T07:26:59;3.67;;;1.90;;
75935;SDS011;64614;32.062;34.834;2024-03-17T07:29:25;4.25;;;1.88;;
75935;SDS011;64614;32.062;34.834;2024-03-17T07:31:50;4.25;;;1.90;;
75935;SDS011;64614;32.062;34.834;2024-03-17T07:34:18;3.78;;;1.83;;
75935;SDS011;64614;32.062;34.834;2024-03-17T07:36:43;4.60;;;2.08;;
75935;SDS011;64614;32.062;34.834;2024-03-17T07:39:11;4.85;;;1.98;;
75935;SDS011;64614;32.062;34.834;2024-03-17T07:41:37;5.00;;;2.20;;
75935;SDS011;64614;32.062;34.834;2024-03-17T07:44:03;4.68;;;2.20;;
75935;SDS011;64614;32.062;34.834;2024-03-17T07:46:28;6.22;;;2.60;;
75935;SDS011;64614;32.062;34.834;2024-03-17T07:48:54;4.82;;;2.50;;
75935;SDS011;64614;32.062;34.834;2024-03-17T07:51:19;5.53;;;2.53;;
75935;SDS011;64614;32.062;34.834;2024-03-17T07:53:46;5.13;;;2.33;;
75935;SDS011;64614;32.062;34.834;2024-03-17T07:56:15;4.28;;;2.33;;
75935;SDS011;64614;32.062;34.834;2024-03-17T07:58:42;5.68;;;2.47;;
75935;SDS011;64614;32.062;34.834;2024-03-17T08:01:09;3.97;;;2.03;;
75935;SDS011;64614;32.062;34.834;2024-03-17T08:03:37;4.70;;;2.05;;
75935;SDS011;64614;32.062;34.834;2024-03-17T08:06:04;4.10;;;2.00;;
75935;SDS011;64614;32.062;34.834;2024-03-17T08:08:31;4.43;;;1.80;;
75935;SDS011;64614;32.062;34.834;2024-03-17T08:10:57;2.85;;;1.73;;
75935;SDS011;64614;32.062;34.834;2024-03-17T08:13:24;3.17;;;1.63;;
75935;SDS011;64614;32.062;34.834;2024-03-17T08:15:56;3.97;;;1.80;;
75935;SDS011;64614;32.062;34.834;2024-03-17T08:18:23;3.80;;;1.45;;
75935;SDS011;64614;32.062;34.834;2024-03-17T08:20:50;4.15;;;1.60;;
75935;SDS011;64614;32.062;34.834;2024-03-17T08:23:16;3.17;;;1.63;;
75935;SDS011;64614;32.062;34.834;2024-03-17T08:25:41;3.90;;;1.33;;
75935;SDS011;64614;32.062;34.834;2024-03-17T08:28:07;3.17;;;1.60;;
75935;SDS011;64614;32.062;34.834;2024-03-17T08:30:33;2.25;;;1.50;;
75935;SDS011;64614;32.062;34.834;2024-03-17T08:32:59;2.85;;;1.20;;
75935;SDS011;64614;32.062;34.834;2024-03-17T08:35:27;2.80;;;1.35;;
75935;SDS011;64614;32.062;34.834;2024-03-17T08:37:53;2.33;;;1.40;;
75935;SDS011;64614;32.062;34.834;2024-03-17T08:40:22;2.92;;;1.42;;
75935;SDS011;64614;32.062;34.834;2024-03-17T08:42:50;3.63;;;1.45;;
75935;SDS011;64614;32.062;34.834;2024-03-17T08:45:16;2.72;;;1.30;;
75935;SDS011;64614;32.062;34.834;2024-03-17T08:47:42;2.70;;;1.55;;
75935;SDS011;64614;32.062;34.834;2024-03-17T08:50:08;3.40;;;1.30;;
75935;SDS011;64614;32.062;34.834;2024-03-17T08:52:34;3.97;;;1.40;;
75935;SDS011;64614;32.062;34.834;2024-03-17T08:55:00;2.60;;;1.23;;
75935;SDS011;64614;32.062;34.834;2024-03-17T08:59:54;2.10;;;1.17;;
75935;SDS011;64614;32.062;34.834;2024-03-17T09:02:20;3.03;;;1.40;;
75935;SDS011;64614;32.062;34.834;2024-03-17T09:04:48;2.40;;;1.30;;
75935;SDS011;64614;32.062;34.834;2024-03-17T09:07:15;2.67;;;1.20;;
75935;SDS011;64614;32.062;34.834;2024-03-17T09:09:41;1.48;;;1.02;;
75935;SDS011;64614;32.062;34.834;2024-03-17T09:12:07;2.50;;;1.27;;
75935;SDS011;64614;32.062;34.834;2024-03-17T09:14:34;2.83;;;1.40;;
75935;SDS011;64614;32.062;34.834;2024-03-17T09:17:00;2.17;;;1.27;;
75935;SDS011;64614;32.062;34.834;2024-03-17T09:19:26;2.28;;;1.20;;
75935;SDS011;64614;32.062;34.834;2024-03-17T09:21:55;1.45;;;1.00;;
75935;SDS011;64614;32.062;34.834;2024-03-17T09:24:21;3.03;;;1.38;;
75935;SDS011;64614;32.062;34.834;2024-03-17T09:26:48;2.60;;;1.30;;
75935;SDS011;64614;32.062;34.834;2024-03-17T09:29:13;2.45;;;1.30;;
75935;SDS011;64614;32.062;34.834;2024-03-17T09:31:42;3.78;;;1.58;;
75935;SDS011;64614;32.062;34.834;2024-03-17T09:34:08;2.88;;;1.85;;
75935;SDS011;64614;32.062;34.834;2024-03-17T09:36:34;5.28;;;2.58;;
75935;SDS011;64614;32.062;34.834;2024-03-17T09:39:00;7.47;;;3.60;;
75935;SDS011;64614;32.062;34.834;2024-03-17T09:41:33;14.82;;;7.55;;
75935;SDS011;64614;32.062;34.834;2024-03-17T09:43:59;11.38;;;5.90;;
75935;SDS011;64614;32.062;34.834;2024-03-17T09:46:25;10.05;;;4.97;;
75935;SDS011;64614;32.062;34.834;2024-03-17T09:48:53;8.98;;;4.80;;
75935;SDS011;64614;32.062;34.834;2024-03-17T09:51:20;11.68;;;5.75;;
75935;SDS011;64614;32.062;34.834;2024-03-17T09:53:47;12.40;;;6.80;;
75935;SDS011;64614;32.062;34.834;2024-03-17T09:56:13;13.63;;;8.73;;
75935;SDS011;64614;32.062;34.834;2024-03-17T09:58:41;12.82;;;8.55;;
75935;SDS011;64614;32.062;34.834;2024-03-17T10:01:07;14.65;;;8.50;;
75935;SDS011;64614;32.062;34.834;2024-03-17T10:06:19;11.90;;;7.93;;
75935;SDS011;64614;32.062;34.834;2024-03-17T10:11:16;9.48;;;6.03;;
75935;SDS011;64614;32.062;34.834;2024-03-17T10:13:44;8.95;;;5.35;;
75935;SDS011;64614;32.062;34.834;2024-03-17T10:16:24;9.07;;;4.35;;
75935;SDS011;64614;32.062;34.834;2024-03-17T10:19:05;8.73;;;5.00;;
75935;SDS011;64614;32.062;34.834;2024-03-17T10:21:36;8.80;;;4.30;;
75935;SDS011;64614;32.062;34.834;2024-03-17T10:24:06;9.77;;;5.22;;
75935;SDS011;64614;32.062;34.834;2024-03-17T10:26:43;8.88;;;4.20;;
75935;SDS011;64614;32.062;34.834;2024-03-17T10:34:23;6.80;;;3.50;;
75935;SDS011;64614;32.062;34.834;2024-03-17T10:39:52;5.03;;;2.60;;
75935;SDS011;64614;32.062;34.834;2024-03-17T10:42:24;5.57;;;2.53;;
75935;SDS011;64614;32.062;34.834;2024-03-17T10:44:53;4.70;;;2.20;;
75935;SDS011;64614;32.062;34.834;2024-03-17T10:47:24;4.25;;;2.17;;
75935;SDS011;64614;32.062;34.834;2024-03-17T10:49:51;5.53;;;2.30;;
75935;SDS011;64614;32.062;34.834;2024-03-17T10:52:19;4.40;;;2.17;;
75935;SDS011;64614;32.062;34.834;2024-03-17T10:54:49;4.22;;;1.95;;
75935;SDS011;64614;32.062;34.834;2024-03-17T10:57:38;4.53;;;2.10;;
75935;SDS011;64614;32.062;34.834;2024-03-17T11:00:13;5.53;;;2.20;;
75935;SDS011;64614;32.062;34.834;2024-03-17T11:02:44;4.32;;;2.10;;
75935;SDS011;64614;32.062;34.834;2024-03-17T11:05:13;3.45;;;1.80;;
75935;SDS011;64614;32.062;34.834;2024-03-17T11:07:42;3.42;;;1.90;;
75935;SDS011;64614;32.062;34.834;2024-03-17T11:10:15;4.47;;;1.98;;
75935;SDS011;64614;32.062;34.834;2024-03-17T11:12:49;4.47;;;1.90;;
75935;SDS011;64614;32.062;34.834;2024-03-17T11:17:44;6.00;;;2.30;;
75935;SDS011;64614;32.062;34.834;2024-03-17T11:20:15;3.10;;;1.58;;
75935;SDS011;64614;32.062;34.834;2024-03-17T11:22:48;4.20;;;1.90;;
75935;SDS011;64614;32.062;34.834;2024-03-17T11:44:13;3.85;;;1.80;;
75935;SDS011;64614;32.062;34.834;2024-03-17T11:46:40;4.63;;;2.00;;
75935;SDS011;64614;32.062;34.834;2024-03-17T11:49:51;5.57;;;2.00;;
75935;SDS011;64614;32.062;34.834;2024-03-17T11:54:35;4.80;;;1.75;;
75935;SDS011;64614;32.062;34.834;2024-03-17T11:57:02;4.55;;;1.90;;
75935;SDS011;64614;32.062;34.834;2024-03-17T11:59:29;5.57;;;2.10;;
75935;SDS011;64614;32.062;34.834;2024-03-17T12:01:55;6.15;;;2.38;;
75935;SDS011;64614;32.062;34.834;2024-03-17T12:04:22;5.32;;;2.17;;
75935;SDS011;64614;32.062;34.834;2024-03-17T12:06:50;6.47;;;2.30;;
75935;SDS011;64614;32.062;34.834;2024-03-17T12:11:47;4.55;;;2.00;;
75935;SDS011;64614;32.062;34.834;2024-03-17T12:14:23;4.43;;;2.00;;
75935;SDS011;64614;32.062;34.834;2024-03-17T12:17:00;5.80;;;2.13;;
75935;SDS011;64614;32.062;34.834;2024-03-17T12:19:28;5.10;;;1.98;;
75935;SDS011;64614;32.062;34.834;2024-03-17T12:21:54;3.88;;;2.10;;
75935;SDS011;64614;32.062;34.834;2024-03-17T12:24:22;5.15;;;2.03;;
75935;SDS011;64614;32.062;34.834;2024-03-17T12:26:49;4.03;;;1.88;;
75935;SDS011;64614;32.062;34.834;2024-03-17T12:31:58;5.70;;;2.08;;
75935;SDS011;64614;32.062;34.834;2024-03-17T12:34:33;5.97;;;1.88;;
75935;SDS011;64614;32.062;34.834;2024-03-17T12:36:59;5.15;;;2.20;;
75935;SDS011;64614;32.062;34.834;2024-03-17T12:39:27;5.40;;;1.92;;
75935;SDS011;64614;32.062;34.834;2024-03-17T12:44:39;4.90;;;1.98;;
75935;SDS011;64614;32.062;34.834;2024-03-17T12:47:17;4.40;;;1.85;;
75935;SDS011;64614;32.062;34.834;2024-03-17T12:49:51;5.22;;;1.70;;
75935;SDS011;64614;32.062;34.834;2024-03-17T12:52:21;5.53;;;2.00;;
75935;SDS011;64614;32.062;34.834;2024-03-17T12:55:06;4.22;;;1.70;;
75935;SDS011;64614;32.062;34.834;2024-03-17T12:58:05;5.10;;;1.80;;
75935;SDS011;64614;32.062;34.834;2024-03-17T13:01:03;4.78;;;1.80;;
75935;SDS011;64614;32.062;34.834;2024-03-17T13:03:31;3.42;;;1.85;;
75935;SDS011;64614;32.062;34.834;2024-03-17T13:06:00;3.53;;;1.60;;
75935;SDS011;64614;32.062;34.834;2024-03-17T13:08:31;4.28;;;1.73;;
75935;SDS011;64614;32.062;34.834;2024-03-17T13:10:58;5.00;;;1.73;;
75935;SDS011;64614;32.062;34.834;2024-03-17T13:13:24;3.63;;;1.70;;
75935;SDS011;64614;32.062;34.834;2024-03-17T13:15:51;4.25;;;1.67;;
75935;SDS011;64614;32.062;34.834;2024-03-17T13:18:17;3.78;;;1.70;;
75935;SDS011;64614;32.062;34.834;2024-03-17T13:20:44;4.05;;;1.80;;
75935;SDS011;64614;32.062;34.834;2024-03-17T13:23:10;3.22;;;1.52;;
75935;SDS011;64614;32.062;34.834;2024-03-17T13:25:36;3.42;;;1.80;;
75935;SDS011;64614;32.062;34.834;2024-03-17T13:28:05;3.05;;;1.80;;
75935;SDS011;64614;32.062;34.834;2024-03-17T13:30:34;3.90;;;1.80;;
75935;SDS011;64614;32.062;34.834;2024-03-17T13:33:05;2.35;;;1.42;;
75935;SDS011;64614;32.062;34.834;2024-03-17T13:35:33;3.53;;;1.65;;
75935;SDS011;64614;32.062;34.834;2024-03-17T13:38:03;3.58;;;1.48;;
75935;SDS011;64614;32.062;34.834;2024-03-17T13:40:29;3.42;;;1.50;;
75935;SDS011;64614;32.062;34.834;2024-03-17T13:42:55;3.65;;;1.52;;
75935;SDS011;64614;32.062;34.834;2024-03-17T13:45:22;3.65;;;1.70;;
75935;SDS011;64614;32.062;34.834;2024-03-17T13:47:56;3.53;;;1.60;;
75935;SDS011;64614;32.062;34.834;2024-03-17T13:50:23;4.38;;;1.60;;
75935;SDS011;64614;32.062;34.834;2024-03-17T13:52:49;5.35;;;1.73;;
75935;SDS011;64614;32.062;34.834;2024-03-17T13:55:19;5.47;;;1.98;;
75935;SDS011;64614;32.062;34.834;2024-03-17T14:00:16;5.20;;;1.80;;
75935;SDS011;64614;32.062;34.834;2024-03-17T14:02:48;4.85;;;2.00;;
75935;SDS011;64614;32.062;34.834;2024-03-17T14:05:15;5.15;;;2.25;;
75935;SDS011;64614;32.062;34.834;2024-03-17T14:07:42;4.70;;;1.77;;
75935;SDS011;64614;32.062;34.834;2024-03-17T14:10:11;6.15;;;1.90;;
75935;SDS011;64614;32.062;34.834;2024-03-17T14:12:39;4.68;;;1.70;;
75935;SDS011;64614;32.062;34.834;2024-03-17T14:15:10;4.03;;;1.80;;
75935;SDS011;64614;32.062;34.834;2024-03-17T14:17:38;6.25;;;1.90;;
75935;SDS011;64614;32.062;34.834;2024-03-17T14:20:04;4.88;;;1.75;;
75935;SDS011;64614;32.062;34.834;2024-03-17T14:22:38;4.60;;;1.90;;
75935;SDS011;64614;32.062;34.834;2024-03-17T14:25:16;5.88;;;1.98;;
75935;SDS011;64614;32.062;34.834;2024-03-17T14:27:46;4.70;;;2.00;;
75935;SDS011;64614;32.062;34.834;2024-03-17T14:30:16;4.93;;;1.90;;
75935;SDS011;64614;32.062;34.834;2024-03-17T14:32:44;3.80;;;1.65;;
75935;SDS011;64614;32.062;34.834;2024-03-17T14:35:13;5.53;;;1.92;;
75935;SDS011;64614;32.062;34.834;2024-03-17T14:37:40;8.32;;;2.05;;
75935;SDS011;64614;32.062;34.834;2024-03-17T14:40:08;7.05;;;2.10;;
75935;SDS011;64614;32.062;34.834;2024-03-17T14:42:42;5.15;;;1.80;;
75935;SDS011;64614;32.062;34.834;2024-03-17T14:45:08;6.82;;;2.25;;
75935;SDS011;64614;32.062;34.834;2024-03-17T14:47:34;5.05;;;1.95;;
75935;SDS011;64614;32.062;34.834;2024-03-17T14:50:00;5.03;;;1.90;;
75935;SDS011;64614;32.062;34.834;2024-03-17T14:52:25;5.63;;;1.83;;
75935;SDS011;64614;32.062;34.834;2024-03-17T14:54:51;4.78;;;1.95;;
75935;SDS011;64614;32.062;34.834;2024-03-17T14:57:19;3.63;;;1.90;;
75935;SDS011;64614;32.062;34.834;2024-03-17T14:59:46;6.53;;;1.83;;
75935;SDS011;64614;32.062;34.834;2024-03-17T15:02:11;4.30;;;1.73;;
75935;SDS011;64614;32.062;34.834;2024-03-17T15:04:37;5.32;;;2.00;;
75935;SDS011;64614;32.062;34.834;2024-03-17T15:07:03;4.43;;;1.88;;
75935;SDS011;64614;32.062;34.834;2024-03-17T15:09:28;4.63;;;1.80;;
75935;SDS011;64614;32.062;34.834;2024-03-17T15:11:54;3.95;;;1.60;;
75935;SDS011;64614;32.062;34.834;2024-03-17T15:14:20;3.50;;;1.65;;
75935;SDS011;64614;32.062;34.834;2024-03-17T15:16:45;4.57;;;1.80;;
75935;SDS011;64614;32.062;34.834;2024-03-17T15:19:11;4.35;;;1.73;;
75935;SDS011;64614;32.062;34.834;2024-03-17T15:21:37;4.60;;;1.70;;
75935;SDS011;64614;32.062;34.834;2024-03-17T15:24:02;4.15;;;1.70;;
75935;SDS011;64614;32.062;34.834;2024-03-17T15:26:29;4.05;;;1.80;;
75935;SDS011;64614;32.062;34.834;2024-03-17T15:28:54;4.22;;;1.65;;
75935;SDS011;64614;32.062;34.834;2024-03-17T15:31:28;5.63;;;2.03;;
75935;SDS011;64614;32.062;34.834;2024-03-17T15:33:55;3.80;;;1.77;;
75935;SDS011;64614;32.062;34.834;2024-03-17T15:36:22;4.45;;;1.70;;